16. August 2022

Uhrzeit Code Wetter Temp. Sichtweite Wolkendecke Wind METAR/SPECI
14:20
V
27 °C 10 km+ - 230° 230° 9 kt METAR ETMN 161220Z 23009KT 9999 FEW045TCU 27/15 Q1007 BLU+BLU+
13:20
V
27 °C 10 km+ - 230° 230° 10 kt METAR ETMN 161120Z 23010KT 9999 FEW042 SCT150 27/15 Q1007 BLU+BLU+
12:20
V
26 °C 10 km+ - 220° 220° 11 kt METAR ETMN 161020Z 22011KT 9999 FEW035 SCT140 26/15 Q1007 BLU+BLU TEMPO BLU+
11:20
V
25 °C 10 km+ - 240° 240° 8 kt METAR ETMN 160920Z 24008KT 9999 FEW035 25/17 Q1006 BLU+BLU TEMPO BLU+
10:20
V
23 °C 10 km+ 15.000 ft 220° 220° 7 kt METAR ETMN 160820Z 22007KT 9999 FEW020 BKN150 23/18 Q1006 BLU BLU
09:20
V
21 °C 10 km+ 12.000 ft 210° 210° 5 kt METAR ETMN 160720Z 21005KT 9999 FEW090 BKN120 21/18 Q1006 BLU BLU
08:20
V
20 °C 9 km 14.000 ft 230° 230° 4 kt METAR ETMN 160620Z 23004KT 9000 BKN140 20/18 Q1006 BLU BLU
07:20
M
19 °C 6 km 11.000 ft 210° 210° 7 kt METAR ETMN 160520Z 21007KT 6000 VCFG BKN110 SCT150 19/18 Q1005 WHT BLU TEMPO WHT
06:38
M
19 °C 6 km 11.000 ft 210° 210° 6 kt METAR ETMN 160438Z 21006KT 6000 VCFG BKN110 19/18 Q1005 WHT BLU TEMPO WHT
06:20
V
18 °C 8 km 11.000 ft 220° 220° 6 kt METAR ETMN 160420Z 22006KT 8000 VCFG MIFG BKN110 18/18 Q1005 BLU BLU TEMPO WHT
05:20
V
18 °C 10 km+ 15.000 ft 220° 220° 5 kt METAR ETMN 160320Z 22005KT 9999 FEW110 BKN150 18/17 Q1005 BLU
04:20
V
18 °C 10 km+ 15.000 ft 250° 250° 4 kt METAR ETMN 160220Z 25004KT 9999 SCT100 BKN150 18/17 Q1005 BLU
03:20
V
19 °C 10 km+ 15.000 ft 260° 260° 3 kt METAR ETMN 160120Z 26003KT 9999 FEW090 BKN150 19/17 Q1005 BLU
02:20
V
20 °C 10 km+ 13.000 ft 260° 260° 4 kt METAR ETMN 160020Z 26004KT 9999 FEW090 BKN130 20/18 Q1004 BLU
01:20
V
19 °C 10 km+ 12.000 ft 280° 280° 3 kt METAR ETMN 152320Z 28003KT 9999 BKN120 19/17 Q1004 BLU
00:20
V
20 °C 10 km+ 10.000 ft 280° 280° 3 kt METAR ETMN 152220Z 28003KT 9999 FEW060 BKN100 20/17 Q1005 BLU

15. August 2022

Uhrzeit Code Wetter Temp. Sichtweite Wolkendecke Wind METAR/SPECI
23:20
V
19 °C 10 km+ - 310° 310° 5 kt METAR ETMN 152120Z 31005KT 9999 SCT130 19/17 Q1004 BLU+
22:20
V
20 °C 10 km+ 15.000 ft 300° 300° 5 kt METAR ETMN 152020Z 30005KT 9999 FEW035 BKN150 20/17 Q1004 BLU
21:20
V
21 °C 10 km+ 25.000 ft 250° 250° 4 kt METAR ETMN 151920Z 25004KT 9999 FEW035 SCT110 BKN250 21/17 Q1004 BLU+
20:20
V
23 °C 10 km+ 11.000 ft 240° 240° 4 kt METAR ETMN 151820Z 24004KT 9999 FEW035CB BKN110 23/18 Q1003 BLU
19:20
V
23 °C 10 km+ 12.000 ft 230° 230° 5 kt METAR ETMN 151720Z 23005KT 9999 FEW035TCU BKN120 23/17 Q1003 BLU
18:20
V
24 °C 10 km+ 12.000 ft 130° 130° 4 kt METAR ETMN 151620Z 13004KT 9999 FEW030TCU SCT060 BKN120 24/19 Q1003 BLU
17:20
V
22 °C 10 km+ 13.000 ft 100° 100° 2 kt METAR ETMN 151520Z 10002KT 9999 FEW035CB BKN130 22/19 Q1002 BLU
16:20
V
22 °C 10 km+ 11.000 ft 280° 280° 1 kt METAR ETMN 151420Z 28001KT 9999 -SHRA FEW035CB SCT060 BKN110 22/19 Q1003 RETS BLU
16:01
V
21 °C 9 km 6.000 ft Var Var 2 kt METAR ETMN 151401Z VRB02KT 9000 -TSRA FEW030CB BKN060 BKN090 21/19 Q1002 RESHRA BLU
15:20
M
21 °C 6 km 3.500 ft 140° 140° 15 kt METAR ETMN 151320Z 14015KT 6000 +TSRA FEW018 BKN035CB BKN090 21/18 Q1003 WHT
15:10
M
22 °C 7 km 10.000 ft 110° 110° 10 kt METAR ETMN 151310Z 11010KT 7000 TSRA FEW020 SCT035CB BKN100 22/18 Q1003 WHT
14:54
V
28 °C 9 km 11.000 ft 360° 360° 6 kt METAR ETMN 151254Z 36006KT 9000 -TSRA SCT042CB BKN110 28/16 Q1003 BLU
14:20
V
28 °C 10 km+ 11.000 ft 350° 350° 8 kt METAR ETMN 151220Z 35008KT 9999 FEW045CB BKN110 28/17 Q1003 BLU FCST CNL
13:20
V
30 °C 10 km+ 13.000 ft 090° 090° 5 kt METAR ETMN 151120Z 09005KT 9999 FEW050 BKN130 30/15 Q1003 BLU BLU TEMPO GRN
12:20
V
28 °C 10 km+ - 300° 300° 5 kt METAR ETMN 151020Z 30005KT 9999 FEW045 28/17 Q1003 BLU+BLU+ TEMPO GRN
11:20
V
28 °C 10 km+ - 210° 210° 3 kt METAR ETMN 150920Z 21003KT 9999 FEW040 28/16 Q1004 BLU+BLU+
10:20
V
26 °C 10 km+ - 100° 100° 5 kt METAR ETMN 150820Z 10005KT 9999 FEW040 SCT120 26/16 Q1003 BLU+BLU+
09:20
V
23 °C 10 km+ - 120° 120° 6 kt METAR ETMN 150720Z 12006KT 9999 FEW040 SCT360 23/16 Q1003 BLU+BLU+
08:20
V
21 °C 10 km+ - 110° 110° 6 kt METAR ETMN 150620Z 11006KT 9999 FEW025 SCT120 21/15 Q1004 BLU+
07:20
V
18 °C 10 km+ 38.000 ft 090° 090° 8 kt METAR ETMN 150520Z 09008KT 9999 SCT150 BKN380 18/15 Q1004 BLU+BLU+
06:20
V
17 °C 10 km+ 38.000 ft 090° 090° 5 kt METAR ETMN 150420Z 09005KT 9999 SCT120 BKN380 17/14 Q1004 BLU+BLU+
05:20
V
18 °C 10 km+ - 090° 090° 6 kt METAR ETMN 150320Z 09006KT 9999 SCT160 18/14 Q1004 BLU+
04:20
V
19 °C 10 km+ - 090° 090° 7 kt METAR ETMN 150220Z 09007KT 9999 FEW150 19/14 Q1004 BLU+
03:20
V
19 °C 10 km+ - 080° 080° 7 kt METAR ETMN 150120Z 08007KT 9999 FEW150 19/14 Q1005 BLU+
02:20
V
20 °C 10 km+ - 080° 080° 6 kt METAR ETMN 150020Z 08006KT 9999 SCT150 20/15 Q1005 BLU+
01:20
V
22 °C 10 km+ 14.000 ft 080° 080° 8 kt METAR ETMN 142320Z 08008KT 9999 BKN140 22/15 Q1006 BLU
00:20
V
23 °C 10 km+ 14.000 ft 090° 090° 7 kt METAR ETMN 142220Z 09007KT 9999 BKN140 23/15 Q1006 BLU

14. August 2022

Uhrzeit Code Wetter Temp. Sichtweite Wolkendecke Wind METAR/SPECI
23:20
V
24 °C 10 km+ 14.000 ft 090° 090° 7 kt METAR ETMN 142120Z 09007KT 9999 BKN140 24/15 Q1007 BLU
22:20
V
24 °C 10 km+ 14.000 ft 080° 080° 5 kt METAR ETMN 142020Z 08005KT 9999 BKN140 24/16 Q1007 BLU
21:20
V
25 °C 10 km+ 14.000 ft 090° 090° 3 kt METAR ETMN 141920Z 09003KT 9999 BKN140 25/16 Q1007 BLU
20:20
V
27 °C 10 km+ 13.000 ft 100° 100° 5 kt METAR ETMN 141820Z 10005KT 9999 BKN130 27/17 Q1007 BLU
19:20
V
28 °C 10 km+ 14.000 ft 080° 080° 7 kt METAR ETMN 141720Z 08007KT 9999 BKN140 28/17 Q1007 BLU
18:20
V
29 °C 10 km+ 12.000 ft 080° 080° 11 kt METAR ETMN 141620Z 08011KT 9999 FEW040 BKN120 29/16 Q1007 BLU
17:20
V
29 °C 10 km+ 12.000 ft 100° 100° 9 kt METAR ETMN 141520Z 10009KT 9999 FEW045 BKN120 29/16 Q1008 BLU
16:20
V
30 °C 10 km+ 12.000 ft 100° 100° 10 kt METAR ETMN 141420Z 10010KT 9999 FEW050 BKN120 30/15 Q1008 BLU
15:20
V
30 °C 10 km+ - 090° 090° 13 kt METAR ETMN 141320Z 09013KT 9999 FEW045 SCT130 30/15 Q1009 BLU+
Ältere Daten

Wir und Dritte verfolgen dein Internetverhalten auf unserer Website mit Cookies. Wenn du fortfährst, gehen wir davon aus, dass du mit unserer Cookie-Richtlinie einverstanden bist. Mehr erfahren